sensor_id;sensor_type;location;lat;lon;timestamp;temperature;humidity
19168;DHT22;9716;53.114;18.040;2024-01-16T00:00:20;-0.40;99.90
19168;DHT22;9716;53.114;18.040;2024-01-16T00:03:10;-0.40;99.90
19168;DHT22;9716;53.114;18.040;2024-01-16T00:05:42;-0.40;99.90
19168;DHT22;9716;53.114;18.040;2024-01-16T00:08:10;-0.50;99.90
19168;DHT22;9716;53.114;18.040;2024-01-16T00:10:41;-0.50;99.90
19168;DHT22;9716;53.114;18.040;2024-01-16T00:13:10;-0.50;99.90
19168;DHT22;9716;53.114;18.040;2024-01-16T00:15:38;-0.40;99.90
19168;DHT22;9716;53.114;18.040;2024-01-16T00:18:10;-0.50;99.90
19168;DHT22;9716;53.114;18.040;2024-01-16T00:20:38;-0.50;99.90
19168;DHT22;9716;53.114;18.040;2024-01-16T00:23:10;-0.50;99.90
19168;DHT22;9716;53.114;18.040;2024-01-16T00:25:38;-0.40;99.90
19168;DHT22;9716;53.114;18.040;2024-01-16T00:28:24;-0.40;99.90
19168;DHT22;9716;53.114;18.040;2024-01-16T00:30:56;-0.40;99.90
19168;DHT22;9716;53.114;18.040;2024-01-16T00:33:25;-0.40;99.90
19168;DHT22;9716;53.114;18.040;2024-01-16T00:35:55;-0.40;99.90
19168;DHT22;9716;53.114;18.040;2024-01-16T00:38:23;-0.40;99.90
19168;DHT22;9716;53.114;18.040;2024-01-16T00:40:52;-0.50;99.90
19168;DHT22;9716;53.114;18.040;2024-01-16T00:43:20;-0.60;99.90
19168;DHT22;9716;53.114;18.040;2024-01-16T00:45:48;-0.60;99.90
19168;DHT22;9716;53.114;18.040;2024-01-16T00:48:56;-0.70;99.90
19168;DHT22;9716;53.114;18.040;2024-01-16T00:51:25;-0.70;99.90
19168;DHT22;9716;53.114;18.040;2024-01-16T00:53:59;-0.80;99.90
19168;DHT22;9716;53.114;18.040;2024-01-16T00:56:45;-0.90;99.90
19168;DHT22;9716;53.114;18.040;2024-01-16T00:59:14;-0.90;99.90
19168;DHT22;9716;53.114;18.040;2024-01-16T01:01:42;-0.90;99.90
19168;DHT22;9716;53.114;18.040;2024-01-16T01:04:12;-1.00;99.90
19168;DHT22;9716;53.114;18.040;2024-01-16T01:06:41;-1.00;99.90
19168;DHT22;9716;53.114;18.040;2024-01-16T01:09:09;-1.10;99.90
19168;DHT22;9716;53.114;18.040;2024-01-16T01:11:39;-1.00;99.90
19168;DHT22;9716;53.114;18.040;2024-01-16T01:14:07;-1.10;99.90
19168;DHT22;9716;53.114;18.040;2024-01-16T01:16:36;-1.10;99.90
19168;DHT22;9716;53.114;18.040;2024-01-16T01:19:07;-1.10;99.90
19168;DHT22;9716;53.114;18.040;2024-01-16T01:21:37;-1.10;99.90
19168;DHT22;9716;53.114;18.040;2024-01-16T01:24:06;-1.10;99.90
19168;DHT22;9716;53.114;18.040;2024-01-16T01:26:35;-1.10;99.90
19168;DHT22;9716;53.114;18.040;2024-01-16T01:29:03;-1.10;99.90
19168;DHT22;9716;53.114;18.040;2024-01-16T01:31:32;-1.10;99.90
19168;DHT22;9716;53.114;18.040;2024-01-16T01:34:00;-1.10;99.90
19168;DHT22;9716;53.114;18.040;2024-01-16T01:36:29;-1.10;99.90
19168;DHT22;9716;53.114;18.040;2024-01-16T01:38:59;-1.20;99.90
19168;DHT22;9716;53.114;18.040;2024-01-16T01:41:33;-1.20;99.90
19168;DHT22;9716;53.114;18.040;2024-01-16T01:44:05;-1.20;99.90
19168;DHT22;9716;53.114;18.040;2024-01-16T01:46:35;-1.30;99.90
19168;DHT22;9716;53.114;18.040;2024-01-16T01:49:04;-1.30;99.90
19168;DHT22;9716;53.114;18.040;2024-01-16T01:51:42;-1.40;99.90
19168;DHT22;9716;53.114;18.040;2024-01-16T01:54:12;-1.40;99.90
19168;DHT22;9716;53.114;18.040;2024-01-16T01:56:47;-1.40;99.90
19168;DHT22;9716;53.114;18.040;2024-01-16T01:59:17;-1.50;99.90
19168;DHT22;9716;53.114;18.040;2024-01-16T02:01:47;-1.50;99.90
19168;DHT22;9716;53.114;18.040;2024-01-16T02:04:17;-1.50;99.90
19168;DHT22;9716;53.114;18.040;2024-01-16T02:06:52;-1.50;99.90
19168;DHT22;9716;53.114;18.040;2024-01-16T02:09:22;-1.50;99.90
19168;DHT22;9716;53.114;18.040;2024-01-16T02:11:50;-1.50;99.90
19168;DHT22;9716;53.114;18.040;2024-01-16T02:14:34;-1.50;99.90
19168;DHT22;9716;53.114;18.040;2024-01-16T02:17:11;-1.50;99.90
19168;DHT22;9716;53.114;18.040;2024-01-16T02:19:51;-1.50;99.90
19168;DHT22;9716;53.114;18.040;2024-01-16T02:22:23;-1.50;99.90
19168;DHT22;9716;53.114;18.040;2024-01-16T02:24:54;-1.50;99.90
19168;DHT22;9716;53.114;18.040;2024-01-16T02:27:24;-1.50;99.90
19168;DHT22;9716;53.114;18.040;2024-01-16T02:29:52;-1.50;99.90
19168;DHT22;9716;53.114;18.040;2024-01-16T02:32:20;-1.50;99.90
19168;DHT22;9716;53.114;18.040;2024-01-16T02:34:49;-1.50;99.90
19168;DHT22;9716;53.114;18.040;2024-01-16T02:37:19;-1.50;99.90
19168;DHT22;9716;53.114;18.040;2024-01-16T02:39:47;-1.50;99.90
19168;DHT22;9716;53.114;18.040;2024-01-16T02:42:20;-1.50;99.90
19168;DHT22;9716;53.114;18.040;2024-01-16T02:44:48;-1.50;99.90
19168;DHT22;9716;53.114;18.040;2024-01-16T02:47:17;-1.50;99.90
19168;DHT22;9716;53.114;18.040;2024-01-16T02:49:45;-1.50;99.90
19168;DHT22;9716;53.114;18.040;2024-01-16T02:52:15;-1.50;99.90
19168;DHT22;9716;53.114;18.040;2024-01-16T02:54:46;-1.50;99.90
19168;DHT22;9716;53.114;18.040;2024-01-16T02:57:14;-1.50;99.90
19168;DHT22;9716;53.114;18.040;2024-01-16T02:59:45;-1.50;99.90
19168;DHT22;9716;53.114;18.040;2024-01-16T03:02:13;-1.50;99.90
19168;DHT22;9716;53.114;18.040;2024-01-16T03:04:45;-1.50;99.90
19168;DHT22;9716;53.114;18.040;2024-01-16T03:07:32;-1.50;99.90
19168;DHT22;9716;53.114;18.040;2024-01-16T03:10:00;-1.50;99.90
19168;DHT22;9716;53.114;18.040;2024-01-16T03:12:29;-1.50;99.90
19168;DHT22;9716;53.114;18.040;2024-01-16T03:14:58;-1.50;99.90
19168;DHT22;9716;53.114;18.040;2024-01-16T03:17:27;-1.60;99.90
19168;DHT22;9716;53.114;18.040;2024-01-16T03:19:55;-1.60;99.90
19168;DHT22;9716;53.114;18.040;2024-01-16T03:25:35;-1.60;99.90
19168;DHT22;9716;53.114;18.040;2024-01-16T03:28:06;-1.60;99.90
19168;DHT22;9716;53.114;18.040;2024-01-16T03:31:00;-1.60;99.90
19168;DHT22;9716;53.114;18.040;2024-01-16T03:33:29;-1.70;99.90
19168;DHT22;9716;53.114;18.040;2024-01-16T03:36:01;-1.70;99.90
19168;DHT22;9716;53.114;18.040;2024-01-16T03:38:30;-1.70;99.90
19168;DHT22;9716;53.114;18.040;2024-01-16T03:40:58;-1.70;99.90
19168;DHT22;9716;53.114;18.040;2024-01-16T03:43:29;-1.70;99.90
19168;DHT22;9716;53.114;18.040;2024-01-16T03:45:59;-1.80;99.90
19168;DHT22;9716;53.114;18.040;2024-01-16T03:48:28;-1.60;99.90
19168;DHT22;9716;53.114;18.040;2024-01-16T03:50:57;-1.80;99.90
19168;DHT22;9716;53.114;18.040;2024-01-16T03:53:31;-1.80;99.90
19168;DHT22;9716;53.114;18.040;2024-01-16T03:55:59;-1.80;99.90
19168;DHT22;9716;53.114;18.040;2024-01-16T03:58:28;-1.80;99.90
19168;DHT22;9716;53.114;18.040;2024-01-16T04:00:56;-1.80;99.90
19168;DHT22;9716;53.114;18.040;2024-01-16T04:03:26;-1.90;99.90
19168;DHT22;9716;53.114;18.040;2024-01-16T04:05:54;-1.90;99.90
19168;DHT22;9716;53.114;18.040;2024-01-16T04:08:23;-1.90;99.90
19168;DHT22;9716;53.114;18.040;2024-01-16T04:10:51;-1.90;99.90
19168;DHT22;9716;53.114;18.040;2024-01-16T04:13:20;-2.00;99.90
19168;DHT22;9716;53.114;18.040;2024-01-16T04:15:48;-2.00;99.90
19168;DHT22;9716;53.114;18.040;2024-01-16T04:18:17;-2.10;99.90
19168;DHT22;9716;53.114;18.040;2024-01-16T04:20:47;-2.10;99.90
19168;DHT22;9716;53.114;18.040;2024-01-16T04:23:16;-2.10;99.90
19168;DHT22;9716;53.114;18.040;2024-01-16T04:25:44;-2.20;99.90
19168;DHT22;9716;53.114;18.040;2024-01-16T04:28:13;-2.20;99.90
19168;DHT22;9716;53.114;18.040;2024-01-16T04:30:44;-2.20;99.90
19168;DHT22;9716;53.114;18.040;2024-01-16T04:33:12;-2.30;99.90
19168;DHT22;9716;53.114;18.040;2024-01-16T04:35:41;-2.30;99.90
19168;DHT22;9716;53.114;18.040;2024-01-16T04:38:30;-2.40;99.90
19168;DHT22;9716;53.114;18.040;2024-01-16T04:41:01;-2.40;99.90
19168;DHT22;9716;53.114;18.040;2024-01-16T04:43:30;-2.40;99.90
19168;DHT22;9716;53.114;18.040;2024-01-16T04:46:01;-2.50;99.90
19168;DHT22;9716;53.114;18.040;2024-01-16T04:48:32;-2.50;99.90
19168;DHT22;9716;53.114;18.040;2024-01-16T04:51:12;-2.60;99.90
19168;DHT22;9716;53.114;18.040;2024-01-16T04:53:42;-2.60;99.90
19168;DHT22;9716;53.114;18.040;2024-01-16T04:56:11;-2.60;99.90
19168;DHT22;9716;53.114;18.040;2024-01-16T04:58:48;-2.60;99.90
19168;DHT22;9716;53.114;18.040;2024-01-16T05:01:34;-2.70;99.90
19168;DHT22;9716;53.114;18.040;2024-01-16T05:04:03;-2.80;99.90
19168;DHT22;9716;53.114;18.040;2024-01-16T05:06:32;-2.80;99.90
19168;DHT22;9716;53.114;18.040;2024-01-16T05:09:02;-2.90;99.90
19168;DHT22;9716;53.114;18.040;2024-01-16T05:11:36;-2.90;99.90
19168;DHT22;9716;53.114;18.040;2024-01-16T05:16:57;-3.00;99.90
19168;DHT22;9716;53.114;18.040;2024-01-16T05:19:25;-3.00;99.90
19168;DHT22;9716;53.114;18.040;2024-01-16T05:22:11;-3.10;99.90
19168;DHT22;9716;53.114;18.040;2024-01-16T05:24:41;-3.10;99.90
19168;DHT22;9716;53.114;18.040;2024-01-16T05:27:09;-3.20;99.90
19168;DHT22;9716;53.114;18.040;2024-01-16T05:29:40;-3.20;99.90
19168;DHT22;9716;53.114;18.040;2024-01-16T05:32:11;-3.20;99.90
19168;DHT22;9716;53.114;18.040;2024-01-16T05:34:41;-3.30;99.90
19168;DHT22;9716;53.114;18.040;2024-01-16T05:37:10;-3.30;99.90
19168;DHT22;9716;53.114;18.040;2024-01-16T05:39:38;-3.30;99.90
19168;DHT22;9716;53.114;18.040;2024-01-16T05:42:08;-3.30;99.90
19168;DHT22;9716;53.114;18.040;2024-01-16T05:44:37;-3.30;99.90
19168;DHT22;9716;53.114;18.040;2024-01-16T05:47:05;-3.30;99.90
19168;DHT22;9716;53.114;18.040;2024-01-16T05:49:34;-3.30;99.90
19168;DHT22;9716;53.114;18.040;2024-01-16T05:52:03;-3.40;99.90
19168;DHT22;9716;53.114;18.040;2024-01-16T05:54:32;-3.40;99.90
19168;DHT22;9716;53.114;18.040;2024-01-16T05:57:00;-3.40;99.90
19168;DHT22;9716;53.114;18.040;2024-01-16T05:59:31;-3.40;99.90
19168;DHT22;9716;53.114;18.040;2024-01-16T06:01:59;-3.40;99.90
19168;DHT22;9716;53.114;18.040;2024-01-16T06:04:31;-3.40;99.90
19168;DHT22;9716;53.114;18.040;2024-01-16T06:06:59;-3.50;99.90
19168;DHT22;9716;53.114;18.040;2024-01-16T06:09:28;-3.50;99.90
19168;DHT22;9716;53.114;18.040;2024-01-16T06:11:56;-3.50;99.90
19168;DHT22;9716;53.114;18.040;2024-01-16T06:14:24;-3.50;99.90
19168;DHT22;9716;53.114;18.040;2024-01-16T06:16:54;-3.50;99.90
19168;DHT22;9716;53.114;18.040;2024-01-16T06:19:23;-3.60;99.90
19168;DHT22;9716;53.114;18.040;2024-01-16T06:21:51;-3.60;99.90
19168;DHT22;9716;53.114;18.040;2024-01-16T06:24:20;-3.60;99.90
19168;DHT22;9716;53.114;18.040;2024-01-16T06:26:48;-3.60;99.90
19168;DHT22;9716;53.114;18.040;2024-01-16T06:29:17;-3.60;99.90
19168;DHT22;9716;53.114;18.040;2024-01-16T06:31:59;-3.60;99.90
19168;DHT22;9716;53.114;18.040;2024-01-16T06:34:28;-3.60;99.90
19168;DHT22;9716;53.114;18.040;2024-01-16T06:36:57;-3.60;99.90
19168;DHT22;9716;53.114;18.040;2024-01-16T06:39:25;-3.70;99.90
19168;DHT22;9716;53.114;18.040;2024-01-16T06:41:54;-3.70;99.90
19168;DHT22;9716;53.114;18.040;2024-01-16T06:44:22;-3.70;99.90
19168;DHT22;9716;53.114;18.040;2024-01-16T06:46:51;-3.70;99.90
19168;DHT22;9716;53.114;18.040;2024-01-16T06:49:20;-3.70;99.90
19168;DHT22;9716;53.114;18.040;2024-01-16T06:51:49;-3.70;99.90
19168;DHT22;9716;53.114;18.040;2024-01-16T06:54:17;-3.80;99.90
19168;DHT22;9716;53.114;18.040;2024-01-16T06:56:59;-3.70;99.90
19168;DHT22;9716;53.114;18.040;2024-01-16T06:59:27;-3.80;99.90
19168;DHT22;9716;53.114;18.040;2024-01-16T07:01:56;-3.70;99.90
19168;DHT22;9716;53.114;18.040;2024-01-16T07:04:26;-3.80;99.90
19168;DHT22;9716;53.114;18.040;2024-01-16T07:06:54;-3.80;99.90
19168;DHT22;9716;53.114;18.040;2024-01-16T07:09:26;-3.70;99.90
19168;DHT22;9716;53.114;18.040;2024-01-16T07:11:55;-3.70;99.90
19168;DHT22;9716;53.114;18.040;2024-01-16T07:14:26;-3.70;99.90
19168;DHT22;9716;53.114;18.040;2024-01-16T07:16:54;-3.70;99.90
19168;DHT22;9716;53.114;18.040;2024-01-16T07:19:22;-3.70;99.90
19168;DHT22;9716;53.114;18.040;2024-01-16T07:21:52;-3.70;99.90
19168;DHT22;9716;53.114;18.040;2024-01-16T07:24:21;-3.60;99.90
19168;DHT22;9716;53.114;18.040;2024-01-16T07:26:50;-3.60;99.90
19168;DHT22;9716;53.114;18.040;2024-01-16T07:29:25;-3.60;99.90
19168;DHT22;9716;53.114;18.040;2024-01-16T07:32:02;-3.60;99.90
19168;DHT22;9716;53.114;18.040;2024-01-16T07:34:31;-3.50;99.90
19168;DHT22;9716;53.114;18.040;2024-01-16T07:37:01;-3.50;99.90
19168;DHT22;9716;53.114;18.040;2024-01-16T07:39:29;-3.40;99.90
19168;DHT22;9716;53.114;18.040;2024-01-16T07:41:57;-3.40;99.90
19168;DHT22;9716;53.114;18.040;2024-01-16T07:44:26;-3.30;99.90
19168;DHT22;9716;53.114;18.040;2024-01-16T07:46:55;-3.30;99.90
19168;DHT22;9716;53.114;18.040;2024-01-16T07:49:23;-3.20;99.90
19168;DHT22;9716;53.114;18.040;2024-01-16T07:51:52;-3.10;99.90
19168;DHT22;9716;53.114;18.040;2024-01-16T07:54:22;-3.00;99.90
19168;DHT22;9716;53.114;18.040;2024-01-16T07:56:51;-2.90;99.90
19168;DHT22;9716;53.114;18.040;2024-01-16T07:59:20;-2.80;99.90
19168;DHT22;9716;53.114;18.040;2024-01-16T08:01:48;-2.80;99.90
19168;DHT22;9716;53.114;18.040;2024-01-16T08:04:17;-2.70;99.90
19168;DHT22;9716;53.114;18.040;2024-01-16T08:06:45;-2.60;99.90
19168;DHT22;9716;53.114;18.040;2024-01-16T08:09:15;-2.50;99.90
19168;DHT22;9716;53.114;18.040;2024-01-16T08:11:45;-2.50;99.90
19168;DHT22;9716;53.114;18.040;2024-01-16T08:14:13;-2.40;99.90
19168;DHT22;9716;53.114;18.040;2024-01-16T08:16:42;-2.30;99.90
19168;DHT22;9716;53.114;18.040;2024-01-16T08:19:10;-2.20;99.90
19168;DHT22;9716;53.114;18.040;2024-01-16T08:21:39;-2.20;99.90
19168;DHT22;9716;53.114;18.040;2024-01-16T08:24:07;-2.10;99.90
19168;DHT22;9716;53.114;18.040;2024-01-16T08:26:36;-2.10;99.90
19168;DHT22;9716;53.114;18.040;2024-01-16T08:29:06;-2.00;99.90
19168;DHT22;9716;53.114;18.040;2024-01-16T08:31:34;-2.00;99.90
19168;DHT22;9716;53.114;18.040;2024-01-16T08:34:03;-1.90;99.90
19168;DHT22;9716;53.114;18.040;2024-01-16T08:36:32;-1.90;99.90
19168;DHT22;9716;53.114;18.040;2024-01-16T08:39:01;-1.80;99.90
19168;DHT22;9716;53.114;18.040;2024-01-16T08:41:30;-1.80;99.90
19168;DHT22;9716;53.114;18.040;2024-01-16T08:43:58;-1.80;99.90
19168;DHT22;9716;53.114;18.040;2024-01-16T08:46:28;-1.80;99.90
19168;DHT22;9716;53.114;18.040;2024-01-16T08:48:57;-1.70;99.90
19168;DHT22;9716;53.114;18.040;2024-01-16T08:51:25;-1.70;99.90
19168;DHT22;9716;53.114;18.040;2024-01-16T08:54:03;-1.60;99.90
19168;DHT22;9716;53.114;18.040;2024-01-16T08:56:34;-1.50;99.90
19168;DHT22;9716;53.114;18.040;2024-01-16T08:59:04;-1.50;99.90
19168;DHT22;9716;53.114;18.040;2024-01-16T09:01:33;-1.40;99.90
19168;DHT22;9716;53.114;18.040;2024-01-16T09:04:02;-1.30;99.90
19168;DHT22;9716;53.114;18.040;2024-01-16T09:06:30;-1.10;99.90
19168;DHT22;9716;53.114;18.040;2024-01-16T09:08:59;-1.00;99.90
19168;DHT22;9716;53.114;18.040;2024-01-16T09:11:28;-0.90;99.90
19168;DHT22;9716;53.114;18.040;2024-01-16T09:13:57;-0.90;99.90
19168;DHT22;9716;53.114;18.040;2024-01-16T09:16:28;-0.80;99.90
19168;DHT22;9716;53.114;18.040;2024-01-16T09:18:59;-0.70;99.90
19168;DHT22;9716;53.114;18.040;2024-01-16T09:21:27;-0.60;99.90
19168;DHT22;9716;53.114;18.040;2024-01-16T09:23:59;-0.60;99.90
19168;DHT22;9716;53.114;18.040;2024-01-16T09:26:31;-0.50;99.90
19168;DHT22;9716;53.114;18.040;2024-01-16T09:29:00;-0.40;99.90
19168;DHT22;9716;53.114;18.040;2024-01-16T09:31:28;-0.30;99.90
19168;DHT22;9716;53.114;18.040;2024-01-16T09:33:58;-0.20;99.90
19168;DHT22;9716;53.114;18.040;2024-01-16T09:36:27;-0.20;99.90
19168;DHT22;9716;53.114;18.040;2024-01-16T09:38:56;-0.10;99.90
19168;DHT22;9716;53.114;18.040;2024-01-16T09:41:25;0.00;99.90
19168;DHT22;9716;53.114;18.040;2024-01-16T09:43:53;0.10;99.90
19168;DHT22;9716;53.114;18.040;2024-01-16T09:46:23;0.20;99.90
19168;DHT22;9716;53.114;18.040;2024-01-16T09:48:54;0.20;99.90
19168;DHT22;9716;53.114;18.040;2024-01-16T09:51:25;0.30;99.90
19168;DHT22;9716;53.114;18.040;2024-01-16T09:53:53;0.30;99.90
19168;DHT22;9716;53.114;18.040;2024-01-16T09:56:23;0.20;99.90
19168;DHT22;9716;53.114;18.040;2024-01-16T09:58:57;0.10;99.90
19168;DHT22;9716;53.114;18.040;2024-01-16T10:01:27;0.10;99.90
19168;DHT22;9716;53.114;18.040;2024-01-16T10:03:56;0.00;99.90
19168;DHT22;9716;53.114;18.040;2024-01-16T10:06:27;0.00;99.90
19168;DHT22;9716;53.114;18.040;2024-01-16T10:08:59;0.00;99.90
19168;DHT22;9716;53.114;18.040;2024-01-16T10:11:28;0.00;99.90
19168;DHT22;9716;53.114;18.040;2024-01-16T10:13:58;0.00;99.90
19168;DHT22;9716;53.114;18.040;2024-01-16T10:16:55;0.00;99.90
19168;DHT22;9716;53.114;18.040;2024-01-16T10:19:23;0.10;99.90
19168;DHT22;9716;53.114;18.040;2024-01-16T10:22:10;0.20;99.90
19168;DHT22;9716;53.114;18.040;2024-01-16T10:24:39;0.20;99.90
19168;DHT22;9716;53.114;18.040;2024-01-16T10:27:08;0.20;99.90
19168;DHT22;9716;53.114;18.040;2024-01-16T10:29:37;0.30;99.90
19168;DHT22;9716;53.114;18.040;2024-01-16T10:32:29;0.30;99.90
19168;DHT22;9716;53.114;18.040;2024-01-16T10:35:02;0.40;99.90
19168;DHT22;9716;53.114;18.040;2024-01-16T10:37:40;0.40;99.90
19168;DHT22;9716;53.114;18.040;2024-01-16T10:40:10;0.50;99.90
19168;DHT22;9716;53.114;18.040;2024-01-16T10:42:42;0.50;99.90
19168;DHT22;9716;53.114;18.040;2024-01-16T10:45:16;0.60;99.90
19168;DHT22;9716;53.114;18.040;2024-01-16T10:47:46;0.60;99.90
19168;DHT22;9716;53.114;18.040;2024-01-16T10:50:15;0.70;99.90
19168;DHT22;9716;53.114;18.040;2024-01-16T10:52:47;0.80;99.90
19168;DHT22;9716;53.114;18.040;2024-01-16T10:55:20;0.90;99.90
19168;DHT22;9716;53.114;18.040;2024-01-16T10:57:49;0.90;99.90
19168;DHT22;9716;53.114;18.040;2024-01-16T11:00:19;1.00;99.90
19168;DHT22;9716;53.114;18.040;2024-01-16T11:02:52;1.00;99.90
19168;DHT22;9716;53.114;18.040;2024-01-16T11:05:23;0.90;99.90
19168;DHT22;9716;53.114;18.040;2024-01-16T11:07:56;0.90;99.90
19168;DHT22;9716;53.114;18.040;2024-01-16T11:10:28;0.80;99.90
19168;DHT22;9716;53.114;18.040;2024-01-16T11:13:00;0.80;99.90
19168;DHT22;9716;53.114;18.040;2024-01-16T11:15:29;0.70;99.90
19168;DHT22;9716;53.114;18.040;2024-01-16T11:17:58;0.70;99.90
19168;DHT22;9716;53.114;18.040;2024-01-16T11:20:28;0.60;99.90
19168;DHT22;9716;53.114;18.040;2024-01-16T11:23:19;0.50;99.90
19168;DHT22;9716;53.114;18.040;2024-01-16T11:25:47;0.50;99.90
19168;DHT22;9716;53.114;18.040;2024-01-16T11:28:31;0.50;99.90
19168;DHT22;9716;53.114;18.040;2024-01-16T11:31:27;0.50;99.90
19168;DHT22;9716;53.114;18.040;2024-01-16T11:33:56;0.60;99.90
19168;DHT22;9716;53.114;18.040;2024-01-16T11:36:47;0.60;99.90
19168;DHT22;9716;53.114;18.040;2024-01-16T11:39:19;0.60;99.90
19168;DHT22;9716;53.114;18.040;2024-01-16T11:41:52;0.70;99.90
19168;DHT22;9716;53.114;18.040;2024-01-16T11:44:44;0.80;99.90
19168;DHT22;9716;53.114;18.040;2024-01-16T11:47:16;0.70;99.90
19168;DHT22;9716;53.114;18.040;2024-01-16T11:49:46;0.70;99.90
19168;DHT22;9716;53.114;18.040;2024-01-16T11:52:14;0.80;99.90
19168;DHT22;9716;53.114;18.040;2024-01-16T11:54:44;0.80;99.90
19168;DHT22;9716;53.114;18.040;2024-01-16T11:57:36;0.80;99.90
19168;DHT22;9716;53.114;18.040;2024-01-16T12:00:19;0.90;99.90
19168;DHT22;9716;53.114;18.040;2024-01-16T12:02:53;0.90;99.90
19168;DHT22;9716;53.114;18.040;2024-01-16T12:05:22;0.80;99.90
19168;DHT22;9716;53.114;18.040;2024-01-16T12:07:53;0.80;99.90
19168;DHT22;9716;53.114;18.040;2024-01-16T12:10:24;0.80;99.90
19168;DHT22;9716;53.114;18.040;2024-01-16T12:12:58;0.80;99.90
19168;DHT22;9716;53.114;18.040;2024-01-16T12:15:31;0.80;99.90
19168;DHT22;9716;53.114;18.040;2024-01-16T12:18:01;0.80;99.90
19168;DHT22;9716;53.114;18.040;2024-01-16T12:20:31;0.90;99.90
19168;DHT22;9716;53.114;18.040;2024-01-16T12:23:01;0.70;99.90
19168;DHT22;9716;53.114;18.040;2024-01-16T12:25:32;0.70;99.90
19168;DHT22;9716;53.114;18.040;2024-01-16T12:28:21;0.60;99.90
19168;DHT22;9716;53.114;18.040;2024-01-16T12:30:59;0.50;99.90
19168;DHT22;9716;53.114;18.040;2024-01-16T12:33:29;0.40;99.90
19168;DHT22;9716;53.114;18.040;2024-01-16T12:36:02;0.40;99.90
19168;DHT22;9716;53.114;18.040;2024-01-16T12:38:33;0.30;99.90
19168;DHT22;9716;53.114;18.040;2024-01-16T12:41:05;0.20;99.90
19168;DHT22;9716;53.114;18.040;2024-01-16T12:43:35;0.10;99.90
19168;DHT22;9716;53.114;18.040;2024-01-16T12:46:05;0.00;99.90
19168;DHT22;9716;53.114;18.040;2024-01-16T12:48:35;-0.10;99.90
19168;DHT22;9716;53.114;18.040;2024-01-16T12:51:11;-0.10;99.90
19168;DHT22;9716;53.114;18.040;2024-01-16T12:53:40;-0.20;99.90
19168;DHT22;9716;53.114;18.040;2024-01-16T12:56:10;-0.20;99.90
19168;DHT22;9716;53.114;18.040;2024-01-16T12:58:39;-0.20;99.90
19168;DHT22;9716;53.114;18.040;2024-01-16T13:01:22;-0.30;99.90
19168;DHT22;9716;53.114;18.040;2024-01-16T13:04:07;-0.30;99.90
19168;DHT22;9716;53.114;18.040;2024-01-16T13:06:35;-0.30;99.90
19168;DHT22;9716;53.114;18.040;2024-01-16T13:09:06;-0.30;99.90
19168;DHT22;9716;53.114;18.040;2024-01-16T13:11:50;-0.30;99.90
19168;DHT22;9716;53.114;18.040;2024-01-16T13:14:20;-0.30;99.90
19168;DHT22;9716;53.114;18.040;2024-01-16T13:16:50;-0.30;99.90
19168;DHT22;9716;53.114;18.040;2024-01-16T13:19:19;-0.30;99.90
19168;DHT22;9716;53.114;18.040;2024-01-16T13:21:49;-0.30;99.90
19168;DHT22;9716;53.114;18.040;2024-01-16T13:24:18;-0.30;99.90
19168;DHT22;9716;53.114;18.040;2024-01-16T13:26:50;-0.30;99.90
19168;DHT22;9716;53.114;18.040;2024-01-16T13:29:19;-0.30;99.90
19168;DHT22;9716;53.114;18.040;2024-01-16T13:31:53;-0.30;99.90
19168;DHT22;9716;53.114;18.040;2024-01-16T13:34:25;-0.40;99.90
19168;DHT22;9716;53.114;18.040;2024-01-16T13:36:54;-0.40;99.90
19168;DHT22;9716;53.114;18.040;2024-01-16T13:39:43;-0.50;99.90
19168;DHT22;9716;53.114;18.040;2024-01-16T13:42:12;-0.60;99.90
19168;DHT22;9716;53.114;18.040;2024-01-16T13:44:45;-0.60;99.90
19168;DHT22;9716;53.114;18.040;2024-01-16T13:47:15;-0.70;99.90
19168;DHT22;9716;53.114;18.040;2024-01-16T13:49:49;-0.70;99.90
19168;DHT22;9716;53.114;18.040;2024-01-16T13:52:18;-0.80;99.90
19168;DHT22;9716;53.114;18.040;2024-01-16T13:54:51;-0.90;99.90
19168;DHT22;9716;53.114;18.040;2024-01-16T13:57:21;-1.00;99.90
19168;DHT22;9716;53.114;18.040;2024-01-16T13:59:50;-1.00;99.90
19168;DHT22;9716;53.114;18.040;2024-01-16T14:02:18;-1.00;99.90
19168;DHT22;9716;53.114;18.040;2024-01-16T14:04:47;-1.10;99.90
19168;DHT22;9716;53.114;18.040;2024-01-16T14:07:15;-1.10;99.90
19168;DHT22;9716;53.114;18.040;2024-01-16T14:09:44;-1.20;99.90
19168;DHT22;9716;53.114;18.040;2024-01-16T14:12:13;-1.20;99.90
19168;DHT22;9716;53.114;18.040;2024-01-16T14:14:44;-1.30;99.90
19168;DHT22;9716;53.114;18.040;2024-01-16T14:17:14;-1.30;99.90
19168;DHT22;9716;53.114;18.040;2024-01-16T14:19:43;-1.40;99.90
19168;DHT22;9716;53.114;18.040;2024-01-16T14:22:11;-1.40;99.90
19168;DHT22;9716;53.114;18.040;2024-01-16T14:24:40;-1.50;99.90
19168;DHT22;9716;53.114;18.040;2024-01-16T14:27:08;-1.40;99.90
19168;DHT22;9716;53.114;18.040;2024-01-16T14:29:38;-1.50;99.90
19168;DHT22;9716;53.114;18.040;2024-01-16T14:32:09;-1.50;99.90
19168;DHT22;9716;53.114;18.040;2024-01-16T14:34:38;-1.50;99.90
19168;DHT22;9716;53.114;18.040;2024-01-16T14:37:06;-1.40;99.90
19168;DHT22;9716;53.114;18.040;2024-01-16T14:39:36;-1.40;99.90
19168;DHT22;9716;53.114;18.040;2024-01-16T14:42:04;-1.30;99.90
19168;DHT22;9716;53.114;18.040;2024-01-16T14:44:35;-1.30;99.90
19168;DHT22;9716;53.114;18.040;2024-01-16T14:47:08;-1.20;99.90
19168;DHT22;9716;53.114;18.040;2024-01-16T14:49:37;-1.20;99.90
19168;DHT22;9716;53.114;18.040;2024-01-16T14:52:06;-1.20;99.90
19168;DHT22;9716;53.114;18.040;2024-01-16T14:54:35;-1.20;99.90
19168;DHT22;9716;53.114;18.040;2024-01-16T14:57:03;-1.10;99.90
19168;DHT22;9716;53.114;18.040;2024-01-16T14:59:34;-1.10;99.90
19168;DHT22;9716;53.114;18.040;2024-01-16T15:02:03;-1.10;99.90
19168;DHT22;9716;53.114;18.040;2024-01-16T15:04:42;-1.10;99.90
19168;DHT22;9716;53.114;18.040;2024-01-16T15:07:13;-1.10;99.90
19168;DHT22;9716;53.114;18.040;2024-01-16T15:09:42;-1.10;99.90
19168;DHT22;9716;53.114;18.040;2024-01-16T15:12:11;-1.10;99.90
19168;DHT22;9716;53.114;18.040;2024-01-16T15:14:41;-1.10;99.90
19168;DHT22;9716;53.114;18.040;2024-01-16T15:17:09;-1.10;99.90
19168;DHT22;9716;53.114;18.040;2024-01-16T15:19:38;-1.10;99.90
19168;DHT22;9716;53.114;18.040;2024-01-16T15:22:08;-1.20;99.90
19168;DHT22;9716;53.114;18.040;2024-01-16T15:24:36;-1.20;99.90
19168;DHT22;9716;53.114;18.040;2024-01-16T15:27:05;-1.20;99.90
19168;DHT22;9716;53.114;18.040;2024-01-16T15:29:37;-1.30;99.90
19168;DHT22;9716;53.114;18.040;2024-01-16T15:32:05;-1.30;99.90
19168;DHT22;9716;53.114;18.040;2024-01-16T15:34:36;-1.40;99.90
19168;DHT22;9716;53.114;18.040;2024-01-16T15:37:09;-1.50;99.90
19168;DHT22;9716;53.114;18.040;2024-01-16T15:39:37;-1.50;99.90
19168;DHT22;9716;53.114;18.040;2024-01-16T15:42:05;-1.60;99.90
19168;DHT22;9716;53.114;18.040;2024-01-16T15:44:34;-1.60;99.90
19168;DHT22;9716;53.114;18.040;2024-01-16T15:47:03;-1.60;99.90
19168;DHT22;9716;53.114;18.040;2024-01-16T15:49:32;-1.70;99.90
19168;DHT22;9716;53.114;18.040;2024-01-16T15:52:06;-1.70;99.90
19168;DHT22;9716;53.114;18.040;2024-01-16T15:54:40;-1.80;99.90
19168;DHT22;9716;53.114;18.040;2024-01-16T15:57:09;-1.80;99.90
19168;DHT22;9716;53.114;18.040;2024-01-16T15:59:38;-1.90;99.90
19168;DHT22;9716;53.114;18.040;2024-01-16T16:02:06;-1.90;99.90
19168;DHT22;9716;53.114;18.040;2024-01-16T16:04:35;-2.00;99.90